Terminal Aerodrome Forecast
Issued by NWS Cleveland, OH

Home | Current Version | Previous Version | Text Only | Print | Product List | Glossary Off
Versions: 1 2 3 4 5 6 7 8 9 10 11 12 13 14 15 16 17 18 19 20 21 22

131
FTUS41 KCLE 110535
TAFCAK
TAF
KCAK 110535Z 1106/1206 26008KT P6SM SCT025 OVC035
      TEMPO 1106/1109 -SN BKN025
     FM110900 29008KT 6SM -SN SCT012 OVC025
      TEMPO 1109/1112 3SM -SN OVC012
     FM111800 19008KT P6SM SCT025 OVC035=

USA.gov is the U.S. government's official web portal to all federal, state and local government web resources and services.